Time;durP1;ratioP1;P1;durP2;ratioP2;P2;SDS_P1;SDS_P2;PMS_P1;PMS_P2;Temp;Humidity;BMP_temperature;BMP_pressure;BME280_temperature;BME280_humidity;BME280_pressure;Samples;Min_cycle;Max_cycle;Signal;HPM_P1;HPM_P2
2022/09/20 00:00:20;;;;;;;10.93;7.55;;;;;;;9.39;99.95;96330.36;1659111;85;21422;-85
2022/09/20 00:02:47;;;;;;;8.88;7.45;;;;;;;9.42;99.84;96330.81;1659257;85;21350;-86
2022/09/20 00:05:13;;;;;;;8.30;7.55;;;;;;;9.47;99.91;96335.00;1667388;85;20995;-86
2022/09/20 00:07:39;;;;;;;8.63;7.72;;;;;;;9.50;99.80;96337.73;1663302;85;20993;-86
2022/09/20 00:10:05;;;;;;;9.40;8.38;;;;;;;9.52;99.66;96333.97;1668419;85;21008;-85
2022/09/20 00:12:31;;;;;;;12.63;10.20;;;;;;;9.51;99.42;96338.05;1667716;85;21036;-86
2022/09/20 00:14:56;;;;;;;12.63;9.88;;;;;;;9.48;99.59;96334.02;1654840;85;21045;-86
2022/09/20 00:17:22;;;;;;;10.30;9.15;;;;;;;9.49;99.64;96330.94;1681382;85;21019;-86
2022/09/20 00:19:48;;;;;;;10.20;8.80;;;;;;;9.45;99.54;96334.87;1667930;86;21359;-85
2022/09/20 00:22:13;;;;;;;8.98;8.08;;;;;;;9.41;99.48;96331.80;1668093;85;20959;-85
2022/09/20 00:24:39;;;;;;;8.98;8.00;;;;;;;9.42;99.44;96335.19;1644201;85;21079;-86
2022/09/20 00:27:05;;;;;;;9.23;7.87;;;;;;;9.39;99.36;96334.25;1654180;86;20972;-86
2022/09/20 00:29:30;;;;;;;10.32;8.13;;;;;;;9.39;99.51;96333.77;1681676;85;20959;-86
2022/09/20 00:31:56;;;;;;;10.05;8.03;;;;;;;9.45;99.71;96332.27;1668531;85;21388;-86
2022/09/20 00:37:07;;;;;;;10.18;8.90;;;;;;;9.42;99.72;96337.30;1667582;85;21067;-86
2022/09/20 00:39:32;;;;;;;9.10;8.20;;;;;;;9.42;99.83;96330.81;1660818;85;20956;-86
2022/09/20 00:41:58;;;;;;;9.63;8.73;;;;;;;9.43;99.82;96337.61;1657431;85;21475;-86
2022/09/20 00:45:02;;;;;;;11.57;10.05;;;;;;;9.47;99.96;96334.20;1686718;85;20952;-86
2022/09/20 00:47:42;;;;;;;12.45;9.38;;;;;;;9.50;99.93;96336.44;1668656;85;21033;-85
2022/09/20 00:50:43;;;;;;;21.00;13.60;;;;;;;9.51;99.59;96334.95;1675605;85;21031;-86
2022/09/20 00:53:17;;;;;;;14.25;9.80;;;;;;;9.49;99.62;96337.42;1676689;84;21488;-86
2022/09/20 00:55:46;;;;;;;19.27;11.63;;;;;;;9.52;99.86;96341.75;1675967;86;21381;-86
2022/09/20 00:58:14;;;;;;;20.15;12.58;;;;;;;9.53;99.88;96336.08;1675807;84;21044;-87
2022/09/20 01:00:40;;;;;;;9.00;8.05;;;;;;;9.56;99.80;96340.42;1664451;86;21413;-86
2022/09/20 01:03:08;;;;;;;7.42;6.58;;;;;;;9.55;99.38;96341.41;1663515;84;20973;-86
2022/09/20 01:05:33;;;;;;;10.13;8.05;;;;;;;9.55;99.33;96344.48;1670710;84;20957;-86
2022/09/20 01:07:59;;;;;;;7.30;6.60;;;;;;;9.56;99.35;96331.34;1661396;84;22062;-86
2022/09/20 01:10:25;;;;;;;7.17;6.58;;;;;;;9.56;99.24;96340.42;1676055;84;20981;-87
2022/09/20 01:12:51;;;;;;;7.33;6.55;;;;;;;9.55;99.24;96337.51;1665323;84;20975;-86
2022/09/20 01:15:17;;;;;;;9.48;6.97;;;;;;;9.54;99.21;96337.20;1654019;84;20977;-87
2022/09/20 01:17:47;;;;;;;7.03;6.28;;;;;;;9.51;99.17;96338.05;1659580;84;20977;-86
2022/09/20 01:20:29;;;;;;;7.97;6.12;;;;;;;9.47;99.16;96337.59;1658874;86;21141;-86
2022/09/20 01:23:21;;;;;;;7.80;6.37;;;;;;;9.48;99.32;96337.10;1675777;84;21474;-86
2022/09/20 01:26:29;;;;;;;7.22;5.80;;;;;;;9.53;99.57;96336.08;1675396;84;21012;-86
2022/09/20 01:29:37;;;;;;;6.90;5.78;;;;;;;9.60;99.62;96335.70;1675595;84;21367;-87
2022/09/20 01:32:08;;;;;;;5.65;5.15;;;;;;;9.67;99.49;96340.98;1664010;84;21877;-85
2022/09/20 01:34:36;;;;;;;6.70;5.80;;;;;;;9.62;99.06;96335.84;1697643;84;21016;-86
2022/09/20 01:37:31;;;;;;;6.45;5.80;;;;;;;9.54;99.01;96335.09;1693361;84;20978;-86
2022/09/20 01:40:30;;;;;;;6.42;5.80;;;;;;;9.50;99.10;96337.73;1644046;86;21481;-87
2022/09/20 01:43:02;;;;;;;7.00;5.65;;;;;;;9.46;99.16;96336.48;1677568;84;21035;-87
2022/09/20 01:45:30;;;;;;;5.00;4.50;;;;;;;9.45;99.17;96333.08;1689878;84;21353;-87
2022/09/20 01:48:19;;;;;;;7.22;6.37;;;;;;;9.47;99.35;96336.30;1675774;84;21327;-87
2022/09/20 01:51:12;;;;;;;7.35;5.53;;;;;;;9.53;99.56;96332.19;1689509;84;20988;-87
2022/09/20 01:53:53;;;;;;;;;;;;;;;9.53;99.41;96330.40;1679336;84;21038;-87
2022/09/20 01:56:49;;;;;;;5.72;5.05;;;;;;;9.52;99.33;96328.78;1687062;84;20091;-86
2022/09/20 01:59:39;;;;;;;5.97;5.35;;;;;;;9.49;99.60;96337.42;1689787;84;21405;-87
2022/09/20 02:02:44;;;;;;;5.10;4.60;;;;;;;9.48;99.34;96339.20;1644335;85;21065;-87
2022/09/20 02:05:19;;;;;;;7.08;5.28;;;;;;;9.45;99.19;96333.57;1711781;84;20962;-86
2022/09/20 02:08:22;;;;;;;6.78;5.03;;;;;;;9.42;99.05;96337.78;1684594;82;20966;-87
2022/09/20 02:11:16;;;;;;;6.15;4.97;;;;;;;9.42;99.16;96341.19;1702083;82;20956;-86
2022/09/20 02:14:32;;;;;;;6.20;5.25;;;;;;;9.44;99.24;96335.85;1702493;84;20989;-86
2022/09/20 02:17:32;;;;;;;7.60;5.67;;;;;;;9.45;99.66;96335.67;1696404;82;20977;-85
2022/09/20 02:20:32;;;;;;;7.03;5.40;;;;;;;9.46;99.56;96333.89;1684268;82;21379;-85
2022/09/20 02:23:12;;;;;;;6.45;4.95;;;;;;;9.43;99.23;96331.12;1691195;82;21098;-85
2022/09/20 02:26:23;;;;;;;5.08;4.55;;;;;;;9.44;99.44;96332.77;1712775;82;21103;-86
2022/09/20 02:28:57;;;;;;;5.15;4.70;;;;;;;9.47;99.40;96331.11;1712825;82;20936;-85
2022/09/20 02:31:43;;;;;;;5.75;5.15;;;;;;;9.37;98.81;96331.03;1711922;82;20963;-85
2022/09/20 02:34:42;;;;;;;6.25;4.97;;;;;;;9.33;99.29;96334.47;1712187;84;21004;-86
2022/09/20 02:37:48;;;;;;;5.30;4.80;;;;;;;9.33;99.60;96334.47;1697781;82;21008;-86
2022/09/20 02:40:39;;;;;;;6.47;4.75;;;;;;;9.36;99.83;96341.89;1700828;84;20978;-85
2022/09/20 02:43:22;;;;;;;6.20;4.90;;;;;;;9.34;99.22;96343.86;1694300;82;20968;-85
2022/09/20 02:46:02;;;;;;;6.55;5.22;;;;;;;9.33;99.51;96346.14;1714801;82;21051;-85
2022/09/20 02:48:36;;;;;;;6.42;5.58;;;;;;;9.33;99.48;96341.76;1728909;82;21348;-85
2022/09/20 02:51:29;;;;;;;6.75;5.17;;;;;;;9.32;99.55;96353.11;1707624;84;21012;-86
2022/09/20 02:54:32;;;;;;;6.90;5.42;;;;;;;9.32;99.77;96348.42;1710994;82;21099;-86
2022/09/20 02:57:12;;;;;;;8.28;5.37;;;;;;;9.31;99.62;96348.91;1660958;82;20933;-85
2022/09/20 03:00:04;;;;;;;5.90;4.80;;;;;;;9.35;99.79;96357.14;1691012;82;21073;-85
2022/09/20 03:02:53;;;;;;;6.25;5.35;;;;;;;9.37;99.79;96354.38;1693879;84;20994;-86
2022/09/20 03:05:30;;;;;;;8.45;7.00;;;;;;;9.39;99.75;96359.69;1689684;82;21419;-86
2022/09/20 03:08:30;;;;;;;6.75;5.78;;;;;;;9.42;99.91;96361.93;1709387;84;21017;-85
2022/09/20 03:11:05;;;;;;;7.50;6.75;;;;;;;9.42;99.72;96361.93;1716052;82;21425;-85
2022/09/20 03:13:47;;;;;;;5.60;5.03;;;;;;;9.37;99.54;96361.66;1720608;82;21411;-86
2022/09/20 03:16:34;;;;;;;6.85;4.90;;;;;;;9.38;99.78;96363.27;1709982;82;20972;-85
2022/09/20 03:19:14;;;;;;;6.17;4.37;;;;;;;9.36;99.32;96363.94;1709844;82;21033;-85
2022/09/20 03:22:14;;;;;;;8.35;5.67;;;;;;;9.33;99.20;96365.09;1723544;82;20966;-84
2022/09/20 03:24:52;;;;;;;7.75;4.90;;;;;;;9.31;99.22;96366.25;1709274;81;21078;-85
2022/09/20 03:27:56;;;;;;;6.40;5.08;;;;;;;9.29;99.55;96364.33;1709607;84;21001;-85
2022/09/20 03:30:46;;;;;;;6.60;4.42;;;;;;;9.27;99.63;96369.69;1713089;82;21065;-86
2022/09/20 03:33:35;;;;;;;5.50;4.50;;;;;;;9.30;99.76;96372.42;1690243;82;20937;-86
2022/09/20 03:36:34;;;;;;;6.55;4.87;;;;;;;9.33;99.81;96372.07;1709120;82;21024;-85
2022/09/20 03:39:19;;;;;;;4.40;3.52;;;;;;;9.36;99.76;96374.80;1708267;82;20988;-85
2022/09/20 03:42:02;;;;;;;4.67;4.22;;;;;;;9.35;99.85;96368.00;1694898;82;21002;-85
2022/09/20 03:44:45;;;;;;;5.58;4.50;;;;;;;9.37;99.77;96372.52;1703718;82;20974;-85
2022/09/20 03:47:50;;;;;;;6.30;4.72;;;;;;;9.37;99.74;96368.14;1699657;82;21004;-84
2022/09/20 03:50:51;;;;;;;6.50;4.20;;;;;;;9.37;99.73;96373.33;1693576;82;20953;-85
2022/09/20 03:54:00;;;;;;;9.43;5.42;;;;;;;9.37;99.85;96373.33;1728121;82;20954;-84
2022/09/20 03:57:08;;;;;;;6.20;5.00;;;;;;;9.35;99.59;96379.67;1702861;82;21369;-86
2022/09/20 04:00:07;;;;;;;7.58;5.67;;;;;;;9.34;99.37;96376.27;1710059;84;21014;-85
2022/09/20 04:03:06;;;;;;;7.42;4.85;;;;;;;9.35;99.54;96377.08;1692322;82;21108;-85
2022/09/20 04:06:10;;;;;;;6.70;4.53;;;;;;;9.32;99.59;96372.56;1708833;82;20962;-85
2022/09/20 04:09:13;;;;;;;7.20;6.28;;;;;;;9.36;100.00;96381.28;1709455;82;21354;-86
2022/09/20 04:12:06;;;;;;;7.00;4.67;;;;;;;9.43;100.00;96384.78;1710024;82;20956;-86
2022/09/20 04:15:01;;;;;;;5.22;4.25;;;;;;;9.43;99.74;96380.89;1692739;82;21044;-85
2022/09/20 04:17:48;;;;;;;6.55;4.90;;;;;;;9.44;99.62;96388.53;1710000;82;20962;-86
2022/09/20 04:20:46;;;;;;;5.55;4.95;;;;;;;9.46;99.55;96384.45;1679122;82;21032;-85
2022/09/20 04:23:35;;;;;;;33.40;18.65;;;;;;;9.48;99.28;96389.78;1732648;82;21411;-85
2022/09/20 04:26:01;;;;;;;23.80;14.58;;;;;;;9.43;99.30;96391.27;1728960;82;20974;-86
2022/09/20 04:28:41;;;;;;;10.25;6.90;;;;;;;9.38;99.26;96383.20;1666066;84;20986;-85
2022/09/20 04:31:22;;;;;;;6.05;5.45;;;;;;;9.41;99.48;96387.55;1709889;82;21060;-86
2022/09/20 04:33:48;;;;;;;5.85;4.97;;;;;;;9.43;99.50;96392.56;1708699;82;21034;-85
2022/09/20 04:36:36;;;;;;;5.95;5.08;;;;;;;9.50;99.61;96397.39;1682065;84;20984;-86
2022/09/20 04:39:33;;;;;;;48.73;22.95;;;;;;;9.54;99.39;96392.97;1715584;82;20935;-85
2022/09/20 04:42:31;;;;;;;42.25;20.62;;;;;;;9.55;98.85;96396.36;1710021;82;20956;-86
2022/09/20 04:45:29;;;;;;;13.68;8.58;;;;;;;9.51;98.75;96399.80;1704731;83;21021;-86
2022/09/20 04:48:17;;;;;;;25.68;10.20;;;;;;;9.48;98.99;96402.75;1684095;82;20946;-85
2022/09/20 04:51:11;;;;;;;35.03;12.05;;;;;;;9.51;99.17;96399.00;1680763;84;20997;-85
2022/09/20 04:53:49;;;;;;;20.60;10.30;;;;;;;9.50;98.86;96402.08;1686557;82;21066;-86
2022/09/20 04:56:38;;;;;;;12.25;7.75;;;;;;;9.48;98.83;96407.94;1738091;81;20992;-85
2022/09/20 04:59:45;;;;;;;21.33;12.95;;;;;;;9.47;98.93;96411.52;1756604;81;21060;-86
2022/09/20 05:02:22;;;;;;;10.72;6.65;;;;;;;9.52;98.78;96407.90;1747982;82;21063;-85
2022/09/20 05:05:34;;;;;;;8.30;5.83;;;;;;;9.53;98.94;96402.22;1672948;83;21031;-85
2022/09/20 05:08:24;;;;;;;6.05;5.45;;;;;;;9.54;99.12;96405.13;1668534;85;20975;-86
2022/09/20 05:28:39;;;;;;;6.67;5.97;;;;;;;10.10;97.03;96425.09;1779531;80;22169;-83
2022/09/20 05:31:32;;;;;;;7.85;6.20;;;;;;;10.06;96.50;96427.20;1769586;79;21005;-83
2022/09/20 05:34:41;;;;;;;10.70;6.78;;;;;;;10.02;96.82;96429.84;1770423;80;21375;-83
2022/09/20 05:37:20;;;;;;;9.95;6.67;;;;;;;9.90;96.58;96431.25;1752195;81;21007;-83
2022/09/20 05:39:54;;;;;;;7.95;6.42;;;;;;;9.83;97.30;96436.35;1739313;81;21010;-83
2022/09/20 05:42:38;;;;;;;8.43;6.53;;;;;;;9.78;97.11;96443.05;1737872;81;21032;-83
2022/09/20 05:45:24;;;;;;;9.55;7.55;;;;;;;9.76;97.19;96443.70;1787629;80;21006;-81
2022/09/20 05:48:24;;;;;;;11.45;9.45;;;;;;;9.73;97.20;96439.66;1770494;80;21059;-83
2022/09/20 05:51:09;;;;;;;10.25;9.23;;;;;;;9.65;97.11;96441.05;1776696;80;20987;-82
2022/09/20 05:53:55;;;;;;;10.88;8.98;;;;;;;9.61;97.56;96434.11;1778402;80;20916;-83
2022/09/20 05:56:48;;;;;;;10.70;9.60;;;;;;;9.62;97.89;96437.02;1769043;80;21075;-83
2022/09/20 05:59:53;;;;;;;10.03;8.95;;;;;;;9.64;98.24;96435.54;1778321;80;20939;-83
2022/09/20 06:02:52;;;;;;;10.78;8.53;;;;;;;9.69;98.34;96435.81;1764604;80;20991;-83
2022/09/20 06:05:42;;;;;;;8.53;7.62;;;;;;;9.68;98.03;96436.80;1770843;80;21018;-83
2022/09/20 06:08:48;;;;;;;11.22;8.30;;;;;;;9.65;98.06;96438.45;1771030;80;20974;-83
2022/09/20 06:11:58;;;;;;;12.30;9.55;;;;;;;9.63;98.34;96445.11;1740738;81;21396;-83
2022/09/20 06:14:51;;;;;;;7.95;6.62;;;;;;;9.63;98.77;96447.70;1768997;80;20927;-83
2022/09/20 06:17:48;;;;;;;8.98;8.08;;;;;;;9.60;98.56;96448.06;1762204;80;21043;-83
2022/09/20 06:20:38;;;;;;;7.55;6.75;;;;;;;9.59;98.52;96449.01;1784455;80;20959;-83
2022/09/20 06:23:04;;;;;;;8.13;7.03;;;;;;;9.61;98.39;96449.67;1780356;80;21110;-82
2022/09/20 06:25:47;;;;;;;7.97;6.45;;;;;;;9.61;98.52;96454.86;1778253;80;21003;-82
2022/09/20 06:28:20;;;;;;;7.80;6.80;;;;;;;9.62;98.64;96455.66;1770983;80;21009;-82
2022/09/20 06:30:53;;;;;;;6.92;6.05;;;;;;;9.58;98.78;96453.08;1780274;80;21001;-82
2022/09/20 06:33:24;;;;;;;8.83;6.60;;;;;;;9.56;98.98;96458.45;1778578;80;21345;-82
2022/09/20 06:41:59;;;;;;;8.33;6.78;;;;;;;9.65;98.95;96459.20;1785442;80;21867;-83
2022/09/20 06:44:24;;;;;;;7.05;6.45;;;;;;;9.71;99.30;96464.98;1764774;80;20979;-83
2022/09/20 06:46:53;;;;;;;8.45;6.37;;;;;;;9.78;99.54;96466.41;1777965;80;21000;-83
2022/09/20 06:49:18;;;;;;;7.65;6.50;;;;;;;9.81;99.54;96469.95;1787813;80;20991;-83
2022/09/20 06:51:43;;;;;;;7.35;6.62;;;;;;;9.81;99.40;96466.05;1795189;80;21347;-83
2022/09/20 06:54:15;;;;;;;8.58;7.45;;;;;;;9.79;99.04;96470.13;1771918;80;20962;-83
2022/09/20 06:56:40;;;;;;;7.60;6.77;;;;;;;9.80;99.21;96468.34;1764771;80;20996;-83
2022/09/20 06:59:07;;;;;;;7.47;6.62;;;;;;;9.83;99.19;96469.28;1702437;80;21321;-83
2022/09/20 07:01:33;;;;;;;6.70;6.00;;;;;;;9.85;98.92;96467.31;1771686;80;20993;-82
2022/09/20 07:03:58;;;;;;;7.03;6.25;;;;;;;9.87;98.52;96468.75;1782921;80;20948;-83
2022/09/20 07:06:25;;;;;;;7.92;7.22;;;;;;;9.87;98.41;96470.05;1773407;80;20975;-83
2022/09/20 07:08:51;;;;;;;7.20;6.50;;;;;;;9.86;98.62;96467.62;1782972;80;20983;-83
2022/09/20 07:11:17;;;;;;;9.98;7.95;;;;;;;9.86;98.93;96476.71;1765550;80;20943;-83
2022/09/20 07:13:43;;;;;;;8.08;7.28;;;;;;;9.84;98.40;96474.78;1749610;81;21038;-83
2022/09/20 07:16:15;;;;;;;11.22;7.12;;;;;;;9.85;98.38;96480.29;1759436;81;20920;-83
2022/09/20 07:18:40;;;;;;;7.80;6.97;;;;;;;9.86;98.12;96487.09;1752733;81;21423;-83
2022/09/20 07:21:12;;;;;;;11.25;8.40;;;;;;;9.88;98.40;96487.72;1741585;81;20947;-83
2022/09/20 07:23:38;;;;;;;10.43;8.83;;;;;;;9.92;98.52;96486.38;1737369;81;21381;-83
2022/09/20 07:26:04;;;;;;;10.32;8.75;;;;;;;9.94;98.57;96494.83;1741588;81;21011;-83
2022/09/20 07:28:31;;;;;;;10.00;8.30;;;;;;;9.89;98.06;96492.73;1718980;82;21345;-83
2022/09/20 07:30:58;;;;;;;9.35;7.62;;;;;;;9.85;98.18;96498.45;1757564;81;21010;-83
2022/09/20 07:33:24;;;;;;;10.53;8.25;;;;;;;9.86;98.04;96497.47;1740077;81;21014;-83
2022/09/20 07:35:54;;;;;;;8.70;7.80;;;;;;;9.83;98.11;96502.53;1739325;81;21346;-83
2022/09/20 07:38:21;;;;;;;9.03;8.13;;;;;;;9.82;97.95;96499.61;1756103;81;21344;-83
2022/09/20 07:40:58;;;;;;;8.58;7.60;;;;;;;9.82;98.26;96500.11;1742992;81;21018;-83
2022/09/20 07:43:24;;;;;;;8.85;7.97;;;;;;;9.84;98.61;96502.84;1738804;82;21015;-83
2022/09/20 07:45:54;;;;;;;8.75;7.75;;;;;;;9.89;98.58;96508.80;1726503;81;20946;-83
2022/09/20 07:48:28;;;;;;;8.20;7.40;;;;;;;9.89;98.36;96506.20;1735228;81;20959;-83
2022/09/20 07:50:56;;;;;;;8.80;7.78;;;;;;;9.89;98.50;96505.71;1734862;82;20967;-83
2022/09/20 07:53:22;;;;;;;8.05;7.17;;;;;;;9.96;98.52;96512.33;1729393;82;20979;-83
2022/09/20 07:56:05;;;;;;;8.05;7.25;;;;;;;9.97;98.05;96513.95;1739319;82;21337;-83
2022/09/20 07:58:32;;;;;;;10.38;9.13;;;;;;;9.92;98.08;96514.47;1732116;81;20916;-83
2022/09/20 08:01:04;;;;;;;8.88;7.70;;;;;;;9.88;98.04;96515.78;1727241;81;20975;-83
2022/09/20 08:03:31;;;;;;;6.80;6.10;;;;;;;9.89;98.04;96519.18;1732272;82;21018;-83
2022/09/20 08:06:11;;;;;;;9.53;7.17;;;;;;;9.86;97.81;96521.64;1730660;82;21044;-83
2022/09/20 08:08:39;;;;;;;9.08;8.15;;;;;;;9.86;98.14;96533.31;1734121;81;21404;-83
2022/09/20 08:11:18;;;;;;;7.45;6.75;;;;;;;9.93;98.60;96526.96;1734887;81;21361;-83
2022/09/20 08:13:48;;;;;;;7.80;6.83;;;;;;;9.99;98.57;96530.64;1741502;81;20953;-83
2022/09/20 08:16:14;;;;;;;8.28;6.75;;;;;;;9.99;97.99;96526.75;1736050;82;21445;-83
2022/09/20 08:18:47;;;;;;;6.53;5.90;;;;;;;9.98;97.71;96525.94;1731624;81;21028;-83
2022/09/20 08:21:13;;;;;;;8.38;7.55;;;;;;;9.87;97.37;96528.44;1734113;82;21333;-83
2022/09/20 08:23:41;;;;;;;10.48;8.50;;;;;;;9.80;97.59;96531.42;1746445;82;20966;-83
2022/09/20 08:26:13;;;;;;;8.35;7.55;;;;;;;9.81;98.26;96533.53;1734013;82;20931;-83
2022/09/20 08:28:40;;;;;;;10.48;7.15;;;;;;;9.80;97.91;96537.11;1760740;80;20983;-83
2022/09/20 08:31:14;;;;;;;7.42;5.90;;;;;;;9.78;97.95;96545.06;1762753;80;21318;-83
2022/09/20 08:33:40;;;;;;;6.62;5.80;;;;;;;9.73;97.57;96540.86;1762799;80;20955;-83
2022/09/20 08:36:09;;;;;;;8.15;6.75;;;;;;;9.71;97.56;96540.23;1764613;80;21317;-83
2022/09/20 08:38:35;;;;;;;7.42;6.62;;;;;;;9.75;97.70;96541.98;1761237;80;20979;-83
2022/09/20 08:41:15;;;;;;;12.43;8.43;;;;;;;9.73;96.97;96542.16;1765416;80;21014;-83
2022/09/20 08:43:49;;;;;;;9.85;7.47;;;;;;;9.78;97.54;96542.97;1761409;80;20985;-83
2022/09/20 08:46:17;;;;;;;10.18;6.83;;;;;;;9.84;96.73;96548.26;1766508;80;21317;-83
2022/09/20 08:48:43;;;;;;;8.53;7.30;;;;;;;9.87;96.71;96544.50;1766857;80;21018;-83
2022/09/20 08:51:14;;;;;;;8.58;7.78;;;;;;;9.91;96.38;96545.77;1768247;80;21368;-84
2022/09/20 08:53:48;;;;;;;9.30;8.40;;;;;;;9.98;97.02;96540.22;1766943;80;20959;-83
2022/09/20 08:56:15;;;;;;;8.53;7.67;;;;;;;10.06;96.75;96542.73;1776710;80;21002;-81
2022/09/20 08:58:40;;;;;;;8.73;7.83;;;;;;;10.10;96.13;96544.52;1762156;80;20966;-81
2022/09/20 09:01:06;;;;;;;8.18;7.37;;;;;;;10.07;95.87;96549.54;1774786;80;21022;-81
2022/09/20 09:03:32;;;;;;;7.05;6.42;;;;;;;10.06;95.40;96549.23;1770351;80;21376;-81
2022/09/20 09:06:00;;;;;;;8.10;7.30;;;;;;;10.06;95.31;96551.02;1766876;80;20943;-81
2022/09/20 09:08:36;;;;;;;8.50;7.62;;;;;;;10.08;95.58;96545.96;1769537;80;21023;-81
2022/09/20 09:11:08;;;;;;;7.97;7.17;;;;;;;10.14;95.96;96553.07;1737263;81;20970;-81
2022/09/20 09:13:55;;;;;;;8.63;7.60;;;;;;;10.13;94.65;96545.46;1744915;81;20991;-81
2022/09/20 09:16:23;;;;;;;8.23;7.42;;;;;;;10.16;95.23;96549.80;1714966;81;20971;-83
2022/09/20 09:18:50;;;;;;;7.20;6.60;;;;;;;10.16;94.92;96552.89;1715000;83;20960;-83
2022/09/20 09:21:22;;;;;;;6.55;5.95;;;;;;;10.19;95.08;96548.64;1731787;82;21373;-83
2022/09/20 09:24:08;;;;;;;7.80;7.00;;;;;;;10.22;95.24;96550.42;1717567;82;21051;-82
2022/09/20 09:26:39;;;;;;;7.65;6.90;;;;;;;10.30;95.23;96547.45;1703474;83;21385;-83
2022/09/20 09:29:18;;;;;;;7.78;7.08;;;;;;;10.36;94.20;96552.75;1730418;81;20959;-83
2022/09/20 09:31:46;;;;;;;7.37;6.72;;;;;;;10.42;94.80;96551.26;1724476;81;21015;-83
2022/09/20 09:34:25;;;;;;;8.10;7.25;;;;;;;10.40;94.34;96551.41;1744389;81;21021;-83
2022/09/20 09:36:53;;;;;;;7.47;6.78;;;;;;;10.39;94.53;96551.09;1748061;80;20943;-83
2022/09/20 09:39:31;;;;;;;7.35;6.60;;;;;;;10.43;94.99;96552.87;1744671;80;21370;-83
2022/09/20 09:41:59;;;;;;;7.03;6.42;;;;;;;10.39;95.03;96538.10;1752931;80;20971;-83
2022/09/20 09:44:27;;;;;;;7.85;7.10;;;;;;;10.51;94.51;96550.18;1745634;81;21372;-83
2022/09/20 09:46:53;;;;;;;9.20;8.30;;;;;;;10.49;94.14;96547.77;1758028;81;21480;-83
2022/09/20 09:49:29;;;;;;;8.78;7.95;;;;;;;10.49;94.16;96548.25;1745727;82;20979;-83
2022/09/20 09:52:23;;;;;;;8.50;7.80;;;;;;;10.48;94.34;96547.94;1769392;81;21306;-84
2022/09/20 09:54:50;;;;;;;9.48;7.80;;;;;;;10.44;94.84;96546.69;1769995;81;20928;-82
2022/09/20 09:57:37;;;;;;;10.40;9.35;;;;;;;10.52;95.53;96554.39;1773879;81;20987;-82
2022/09/20 10:00:20;;;;;;;10.88;9.88;;;;;;;10.60;95.24;96545.23;1772938;81;21083;-82
2022/09/20 10:03:23;;;;;;;9.35;8.45;;;;;;;10.66;95.18;96543.22;1750868;81;20991;-82
2022/09/20 10:06:21;;;;;;;9.70;8.80;;;;;;;10.88;96.35;96540.70;1770685;81;21337;-83
2022/09/20 10:09:18;;;;;;;12.15;10.95;;;;;;;11.11;96.46;96535.73;1764482;81;20998;-82
2022/09/20 10:12:04;;;;;;;9.90;8.90;;;;;;;11.30;95.59;96537.45;1767204;80;20950;-82
2022/09/20 10:14:53;;;;;;;9.45;8.58;;;;;;;11.42;95.24;96528.20;1774137;80;20986;-82
2022/09/20 10:17:43;;;;;;;8.50;7.72;;;;;;;11.36;94.08;96530.20;1751166;81;20971;-83
2022/09/20 10:20:27;;;;;;;9.13;8.20;;;;;;;11.38;92.73;96525.13;1768731;80;20955;-81
2022/09/20 10:23:33;;;;;;;10.38;9.40;;;;;;;11.37;93.54;96520.11;1750852;81;20936;-82
2022/09/20 10:26:24;;;;;;;9.63;8.73;;;;;;;11.37;92.19;96518.81;1755279;81;20944;-83
2022/09/20 10:29:08;;;;;;;10.13;9.13;;;;;;;11.26;90.58;96526.61;1763850;81;21494;-83
2022/09/20 10:32:25;;;;;;;10.98;9.05;;;;;;;11.33;91.76;96523.58;1752661;81;20971;-83
2022/09/20 10:35:20;;;;;;;9.08;8.18;;;;;;;11.56;91.88;96521.34;1744070;81;21022;-83
2022/09/20 10:38:04;;;;;;;8.30;7.42;;;;;;;11.63;92.64;96516.51;1713382;82;20944;-83
2022/09/20 10:43:59;;;;;;;7.08;6.45;;;;;;;11.80;91.69;96521.01;1729186;81;21368;-83
2022/09/20 10:47:05;;;;;;;7.22;6.40;;;;;;;11.67;90.51;96528.16;1743040;81;20967;-83
2022/09/20 10:49:59;;;;;;;3.58;3.00;;;;;;;11.51;90.59;96539.28;1744075;81;20967;-82
2022/09/20 10:52:48;;;;;;;3.62;2.85;;;;;;;11.27;88.97;96549.53;1744273;81;21007;-83
2022/09/20 10:55:36;;;;;;;2.87;2.10;;;;;;;11.06;89.61;96548.48;1737799;81;21083;-83
2022/09/20 10:58:40;;;;;;;3.47;2.58;;;;;;;11.01;90.38;96554.69;1743090;81;21014;-84
2022/09/20 11:01:18;;;;;;;2.85;2.35;;;;;;;10.98;91.23;96550.35;1731298;81;20973;-84
2022/09/20 11:03:52;;;;;;;2.72;2.50;;;;;;;11.00;91.88;96558.28;1707140;81;20975;-83
2022/09/20 11:07:04;;;;;;;2.70;2.42;;;;;;;11.03;92.16;96551.91;1744472;81;20959;-83
2022/09/20 11:09:35;;;;;;;2.72;2.33;;;;;;;11.07;92.13;96551.89;1744641;81;20991;-83
2022/09/20 11:12:12;;;;;;;2.65;2.20;;;;;;;11.09;92.79;96549.91;1744062;81;21389;-84
2022/09/20 11:14:42;;;;;;;2.10;1.85;;;;;;;11.14;92.81;96544.96;1719408;82;21007;-83
2022/09/20 11:17:15;;;;;;;3.08;1.90;;;;;;;11.21;93.07;96548.44;1743623;81;21527;-83
2022/09/20 11:19:49;;;;;;;2.50;2.10;;;;;;;11.26;92.64;96547.91;1740443;82;21263;-82
2022/09/20 11:22:25;;;;;;;3.33;2.67;;;;;;;11.28;92.49;96544.64;1752658;81;20936;-81
2022/09/20 11:24:56;;;;;;;3.35;2.77;;;;;;;11.32;92.46;96547.98;1726142;83;21056;-82
2022/09/20 11:27:38;;;;;;;3.72;3.37;;;;;;;11.39;93.17;96549.38;1736517;80;21077;-81
2022/09/20 11:30:18;;;;;;;2.65;2.40;;;;;;;11.49;93.82;96549.88;1754493;80;21305;-84
2022/09/20 11:33:14;;;;;;;2.72;2.52;;;;;;;11.60;93.67;96549.91;1756255;81;21055;-83
2022/09/20 11:35:50;;;;;;;2.55;2.35;;;;;;;11.71;93.66;96553.31;1765621;80;21014;-83
2022/09/20 11:38:27;;;;;;;4.37;2.85;;;;;;;11.83;93.83;96555.78;1776701;80;20995;-83
2022/09/20 11:41:03;;;;;;;4.53;2.72;;;;;;;11.83;92.97;96554.48;1746191;81;21360;-84
2022/09/20 11:43:29;;;;;;;3.98;3.20;;;;;;;11.83;93.37;96556.28;1761611;81;21007;-83
2022/09/20 11:46:04;;;;;;;3.33;3.02;;;;;;;11.79;93.08;96553.73;1726993;81;21013;-83
2022/09/20 11:48:39;;;;;;;2.95;2.75;;;;;;;11.77;93.12;96547.88;1754563;81;21049;-83
2022/09/20 11:51:34;;;;;;;2.67;2.40;;;;;;;11.76;93.13;96557.48;1771323;81;21018;-83
2022/09/20 11:54:39;;;;;;;3.42;2.47;;;;;;;11.72;92.99;96554.95;1779668;80;20964;-83
2022/09/20 11:57:08;;;;;;;2.98;2.75;;;;;;;11.70;92.83;96554.30;1786514;80;20979;-83
2022/09/20 11:59:36;;;;;;;3.10;2.80;;;;;;;11.62;92.98;96556.54;1767423;81;20975;-83
2022/09/20 12:02:20;;;;;;;2.77;2.58;;;;;;;11.60;93.27;96561.63;1756086;81;21035;-84
2022/09/20 12:04:48;;;;;;;10.50;7.70;;;;;;;11.55;93.49;96563.48;1745735;81;20971;-83
2022/09/20 12:07:21;;;;;;;10.03;5.25;;;;;;;11.51;93.76;96581.72;1761065;81;21015;-83
2022/09/20 12:09:57;;;;;;;4.45;3.83;;;;;;;11.38;92.35;96577.16;1769577;81;21356;-84
2022/09/20 12:12:40;;;;;;;6.42;3.60;;;;;;;11.23;91.65;96568.59;1761699;81;21388;-84
2022/09/20 12:15:28;;;;;;;6.05;4.28;;;;;;;11.09;91.23;96570.71;1770102;81;20983;-84
2022/09/20 12:18:02;;;;;;;4.97;2.98;;;;;;;10.97;91.04;96568.23;1766905;81;21038;-84
2022/09/20 12:20:43;;;;;;;4.05;3.02;;;;;;;10.84;91.38;96568.86;1774670;81;21381;-84
2022/09/20 12:23:41;;;;;;;2.80;2.22;;;;;;;10.75;91.02;96575.94;1776209;81;20978;-84
2022/09/20 12:26:21;;;;;;;3.30;2.45;;;;;;;10.75;91.23;96570.75;1769252;81;21011;-84
2022/09/20 12:28:55;;;;;;;2.92;1.92;;;;;;;10.76;91.04;96573.66;1746076;81;20986;-84
2022/09/20 12:31:28;;;;;;;2.55;2.35;;;;;;;10.72;91.61;96577.58;1760307;81;21047;-84
2022/09/20 12:34:14;;;;;;;4.28;2.92;;;;;;;10.69;92.55;96583.62;1776299;81;20943;-84
2022/09/20 12:36:54;;;;;;;7.67;4.80;;;;;;;10.68;92.53;96594.52;1767473;81;20955;-84
2022/09/20 12:39:28;;;;;;;5.62;4.00;;;;;;;10.64;92.30;96601.55;1744696;81;21317;-84
2022/09/20 12:42:00;;;;;;;4.35;3.30;;;;;;;10.64;92.08;96599.75;1782416;80;20962;-84
2022/09/20 12:44:38;;;;;;;2.98;2.40;;;;;;;10.66;92.00;96596.48;1763281;81;20991;-84
2022/09/20 12:47:15;;;;;;;2.98;2.35;;;;;;;10.64;91.39;96585.95;1767150;81;20976;-84
2022/09/20 12:52:55;;;;;;;3.12;1.95;;;;;;;10.59;92.14;96576.10;1767509;81;20983;-85
2022/09/20 12:55:48;;;;;;;2.42;1.75;;;;;;;10.58;92.63;96567.19;1766911;81;21007;-84
2022/09/20 12:58:22;;;;;;;1.98;1.67;;;;;;;10.61;92.60;96568.12;1761766;80;21067;-84
2022/09/20 13:01:05;;;;;;;2.02;1.15;;;;;;;10.66;93.05;96573.09;1768798;80;20943;-84
2022/09/20 13:03:43;;;;;;;1.72;1.32;;;;;;;10.77;93.72;96571.37;1769142;81;21766;-84
2022/09/20 13:06:21;;;;;;;1.32;1.20;;;;;;;10.99;94.00;96567.56;1768798;80;21397;-84
2022/09/20 13:09:07;;;;;;;1.47;0.75;;;;;;;11.28;94.61;96564.14;1775730;81;20952;-84
2022/09/20 13:11:53;;;;;;;0.90;0.80;;;;;;;11.52;93.14;96573.42;1775893;81;21039;-82